sensor_id;sensor_type;location;lat;lon;timestamp;pressure;altitude;pressure_sealevel;temperature;humidity
54465;BME280;40374;49.480;20.016;2023-05-01T00:01:06;95413.22;;;1.63;100.00
54465;BME280;40374;49.480;20.016;2023-05-01T00:03:34;95404.53;;;1.50;100.00
54465;BME280;40374;49.480;20.016;2023-05-01T00:06:02;95409.00;;;1.56;100.00
54465;BME280;40374;49.480;20.016;2023-05-01T00:08:31;95406.00;;;1.39;100.00
54465;BME280;40374;49.480;20.016;2023-05-01T00:11:03;95401.56;;;1.33;100.00
54465;BME280;40374;49.480;20.016;2023-05-01T00:13:31;95405.06;;;1.13;100.00
54465;BME280;40374;49.480;20.016;2023-05-01T00:15:58;95420.78;;;1.15;100.00
54465;BME280;40374;49.480;20.016;2023-05-01T00:18:29;95419.97;;;1.14;100.00
54465;BME280;40374;49.480;20.016;2023-05-01T00:20:56;95405.75;;;1.02;100.00
54465;BME280;40374;49.480;20.016;2023-05-01T00:23:24;95418.38;;;1.00;100.00
54465;BME280;40374;49.480;20.016;2023-05-01T00:25:51;95425.34;;;0.88;100.00
54465;BME280;40374;49.480;20.016;2023-05-01T00:28:19;95412.53;;;0.78;100.00
54465;BME280;40374;49.480;20.016;2023-05-01T00:30:46;95422.91;;;0.79;100.00
54465;BME280;40374;49.480;20.016;2023-05-01T00:33:14;95412.53;;;0.71;100.00
54465;BME280;40374;49.480;20.016;2023-05-01T00:35:43;95424.53;;;0.80;100.00
54465;BME280;40374;49.480;20.016;2023-05-01T00:38:11;95409.88;;;0.71;100.00
54465;BME280;40374;49.480;20.016;2023-05-01T00:40:42;95419.22;;;0.87;100.00
54465;BME280;40374;49.480;20.016;2023-05-01T00:43:11;95416.41;;;0.75;100.00
54465;BME280;40374;49.480;20.016;2023-05-01T00:45:43;95422.28;;;0.91;100.00
54465;BME280;40374;49.480;20.016;2023-05-01T00:48:14;95413.34;;;0.78;100.00
54465;BME280;40374;49.480;20.016;2023-05-01T00:50:43;95416.41;;;0.82;100.00
54465;BME280;40374;49.480;20.016;2023-05-01T00:53:14;95422.91;;;0.79;100.00
54465;BME280;40374;49.480;20.016;2023-05-01T00:55:41;95412.97;;;0.68;100.00
54465;BME280;40374;49.480;20.016;2023-05-01T00:58:10;95427.38;;;0.86;100.00
54465;BME280;40374;49.480;20.016;2023-05-01T01:00:38;95418.00;;;0.83;100.00
54465;BME280;40374;49.480;20.016;2023-05-01T01:03:05;95421.69;;;0.82;100.00
54465;BME280;40374;49.480;20.016;2023-05-01T01:05:41;95424.94;;;0.77;100.00
54465;BME280;40374;49.480;20.016;2023-05-01T01:08:17;95423.13;;;0.65;100.00
54465;BME280;40374;49.480;20.016;2023-05-01T01:13:31;95420.09;;;0.61;100.00
54465;BME280;40374;49.480;20.016;2023-05-01T01:16:21;95408.31;;;0.57;100.00
54465;BME280;40374;49.480;20.016;2023-05-01T01:19:01;95416.03;;;0.58;100.00
54465;BME280;40374;49.480;20.016;2023-05-01T01:21:37;95412.78;;;0.50;100.00
54465;BME280;40374;49.480;20.016;2023-05-01T01:24:44;95418.88;;;0.64;100.00
54465;BME280;40374;49.480;20.016;2023-05-01T01:27:39;95420.09;;;0.61;100.00
54465;BME280;40374;49.480;20.016;2023-05-01T01:33:24;;;;0.54;
54465;BME280;40374;49.480;20.016;2023-05-01T01:35:57;95411.97;;;0.29;100.00
54465;BME280;40374;49.480;20.016;2023-05-01T01:38:44;95417.47;;;0.34;100.00
54465;BME280;40374;49.480;20.016;2023-05-01T01:41:33;95417.28;;;0.36;100.00
54465;BME280;40374;49.480;20.016;2023-05-01T01:44:08;95416.69;;;0.34;100.00
54465;BME280;40374;49.480;20.016;2023-05-01T01:46:40;95412.38;;;0.33;100.00
54465;BME280;40374;49.480;20.016;2023-05-01T01:49:14;95415.03;;;0.39;100.00
54465;BME280;40374;49.480;20.016;2023-05-01T01:51:44;95414.44;;;0.24;100.00
54465;BME280;40374;49.480;20.016;2023-05-01T01:54:15;95420.94;;;0.35;100.00
54465;BME280;40374;49.480;20.016;2023-05-01T01:56:45;95405.47;;;0.25;100.00
54465;BME280;40374;49.480;20.016;2023-05-01T01:59:14;95401.63;;;0.21;100.00
54465;BME280;40374;49.480;20.016;2023-05-01T02:01:42;95405.06;;;0.22;100.00
54465;BME280;40374;49.480;20.016;2023-05-01T02:04:12;95400.16;;;0.25;100.00
54465;BME280;40374;49.480;20.016;2023-05-01T02:06:41;95402.19;;;0.23;100.00
54465;BME280;40374;49.480;20.016;2023-05-01T02:09:11;95414.41;;;0.31;100.00
54465;BME280;40374;49.480;20.016;2023-05-01T02:11:42;95401.41;;;0.23;100.00
54465;BME280;40374;49.480;20.016;2023-05-01T02:14:10;95391.03;;;0.14;100.00
54465;BME280;40374;49.480;20.016;2023-05-01T02:16:40;95401.81;;;0.26;100.00
54465;BME280;40374;49.480;20.016;2023-05-01T02:19:09;95393.69;;;0.21;100.00
54465;BME280;40374;49.480;20.016;2023-05-01T02:21:38;95386.75;;;0.20;100.00
54465;BME280;40374;49.480;20.016;2023-05-01T02:24:06;95402.63;;;0.20;100.00
54465;BME280;40374;49.480;20.016;2023-05-01T02:26:40;95392.47;;;0.17;100.00
54465;BME280;40374;49.480;20.016;2023-05-01T02:29:09;95387.56;;;0.14;100.00
54465;BME280;40374;49.480;20.016;2023-05-01T02:31:37;95389.41;;;0.00;100.00
54465;BME280;40374;49.480;20.016;2023-05-01T02:34:04;95385.13;;;-0.14;100.00
54465;BME280;40374;49.480;20.016;2023-05-01T02:36:32;95374.53;;;-0.21;100.00
54465;BME280;40374;49.480;20.016;2023-05-01T02:39:00;95364.19;;;-0.29;100.00
54465;BME280;40374;49.480;20.016;2023-05-01T02:41:28;95388.97;;;-0.17;100.00
54465;BME280;40374;49.480;20.016;2023-05-01T02:44:02;95389.19;;;-0.18;100.00
54465;BME280;40374;49.480;20.016;2023-05-01T02:46:35;95393.25;;;-0.09;100.00
54465;BME280;40374;49.480;20.016;2023-05-01T02:49:04;95383.50;;;-0.22;100.00
54465;BME280;40374;49.480;20.016;2023-05-01T02:51:33;95381.25;;;-0.18;100.00
54465;BME280;40374;49.480;20.016;2023-05-01T02:54:02;95370.88;;;-0.13;100.00
54465;BME280;40374;49.480;20.016;2023-05-01T02:56:30;95383.50;;;-0.09;100.00
54465;BME280;40374;49.480;20.016;2023-05-01T02:58:58;95373.53;;;-0.07;100.00
54465;BME280;40374;49.480;20.016;2023-05-01T03:01:25;95375.78;;;-0.10;100.00
54465;BME280;40374;49.480;20.016;2023-05-01T03:03:53;95373.34;;;-0.05;100.00
54465;BME280;40374;49.480;20.016;2023-05-01T03:06:21;95378.19;;;-0.09;100.00
54465;BME280;40374;49.480;20.016;2023-05-01T03:08:49;95370.50;;;-0.10;100.00
54465;BME280;40374;49.480;20.016;2023-05-01T03:11:16;95377.59;;;-0.24;100.00
54465;BME280;40374;49.480;20.016;2023-05-01T03:13:44;95379.00;;;-0.28;100.00
54465;BME280;40374;49.480;20.016;2023-05-01T03:16:14;95382.03;;;-0.45;100.00
54465;BME280;40374;49.480;20.016;2023-05-01T03:18:41;95384.28;;;-0.42;100.00
54465;BME280;40374;49.480;20.016;2023-05-01T03:21:08;95382.44;;;-0.41;100.00
54465;BME280;40374;49.480;20.016;2023-05-01T03:23:36;95371.69;;;-0.39;100.00
54465;BME280;40374;49.480;20.016;2023-05-01T03:26:06;95375.31;;;-0.41;100.00
54465;BME280;40374;49.480;20.016;2023-05-01T03:28:34;95366.78;;;-0.36;100.00
54465;BME280;40374;49.480;20.016;2023-05-01T03:31:02;95376.56;;;-0.30;100.00
54465;BME280;40374;49.480;20.016;2023-05-01T03:33:30;95377.34;;;-0.36;100.00
54465;BME280;40374;49.480;20.016;2023-05-01T03:36:02;95374.31;;;-0.39;100.00
54465;BME280;40374;49.480;20.016;2023-05-01T03:38:31;95378.56;;;-0.52;100.00
54465;BME280;40374;49.480;20.016;2023-05-01T03:41:08;95379.00;;;-0.48;100.00
54465;BME280;40374;49.480;20.016;2023-05-01T03:43:42;95361.66;;;-0.71;100.00
54465;BME280;40374;49.480;20.016;2023-05-01T03:46:28;95362.72;;;-0.52;100.00
54465;BME280;40374;49.480;20.016;2023-05-01T03:48:57;95362.53;;;-0.44;100.00
54465;BME280;40374;49.480;20.016;2023-05-01T03:51:25;95358.25;;;-0.45;100.00
54465;BME280;40374;49.480;20.016;2023-05-01T03:53:54;95366.41;;;-0.39;100.00
54465;BME280;40374;49.480;20.016;2023-05-01T03:56:29;95351.16;;;-0.37;100.00
54465;BME280;40374;49.480;20.016;2023-05-01T03:59:03;95363.56;;;-0.25;100.00
54465;BME280;40374;49.480;20.016;2023-05-01T04:01:34;95353.19;;;-0.13;100.00
54465;BME280;40374;49.480;20.016;2023-05-01T04:04:01;95341.63;;;-0.18;100.00
54465;BME280;40374;49.480;20.016;2023-05-01T04:06:30;95357.88;;;-0.02;100.00
54465;BME280;40374;49.480;20.016;2023-05-01T04:08:57;95350.56;;;-0.06;100.00
54465;BME280;40374;49.480;20.016;2023-05-01T04:11:25;95364.78;;;0.19;100.00
54465;BME280;40374;49.480;20.016;2023-05-01T04:13:53;95358.88;;;0.24;100.00
54465;BME280;40374;49.480;20.016;2023-05-01T04:16:20;95355.19;;;0.38;100.00
54465;BME280;40374;49.480;20.016;2023-05-01T04:18:48;95362.31;;;0.31;100.00
54465;BME280;40374;49.480;20.016;2023-05-01T04:21:16;95358.63;;;0.59;100.00
54465;BME280;40374;49.480;20.016;2023-05-01T04:23:48;95346.19;;;0.59;100.00
54465;BME280;40374;49.480;20.016;2023-05-01T04:26:16;95361.81;;;0.81;100.00
54465;BME280;40374;49.480;20.016;2023-05-01T04:28:44;95365.84;;;0.90;100.00
54465;BME280;40374;49.480;20.016;2023-05-01T04:31:14;95356.41;;;1.08;100.00
54465;BME280;40374;49.480;20.016;2023-05-01T04:33:41;95365.72;;;1.24;100.00
54465;BME280;40374;49.480;20.016;2023-05-01T04:36:09;95370.72;;;1.38;100.00
54465;BME280;40374;49.480;20.016;2023-05-01T04:38:36;95348.69;;;1.45;100.00
54465;BME280;40374;49.480;20.016;2023-05-01T04:41:04;95351.97;;;1.72;100.00
54465;BME280;40374;49.480;20.016;2023-05-01T04:43:32;95355.34;;;1.86;100.00
54465;BME280;40374;49.480;20.016;2023-05-01T04:46:02;95343.22;;;1.96;100.00
54465;BME280;40374;49.480;20.016;2023-05-01T04:48:31;95354.91;;;2.14;100.00
54465;BME280;40374;49.480;20.016;2023-05-01T05:07:46;95332.75;;;2.89;100.00
54465;BME280;40374;49.480;20.016;2023-05-01T05:10:35;95331.13;;;3.66;100.00
54465;BME280;40374;49.480;20.016;2023-05-01T05:13:22;95329.44;;;3.96;100.00
54465;BME280;40374;49.480;20.016;2023-05-01T05:16:10;95335.84;;;4.42;100.00
54465;BME280;40374;49.480;20.016;2023-05-01T05:18:38;95340.59;;;4.40;100.00
54465;BME280;40374;49.480;20.016;2023-05-01T05:21:06;95347.09;;;4.44;100.00
54465;BME280;40374;49.480;20.016;2023-05-01T05:23:35;95340.25;;;4.60;100.00
54465;BME280;40374;49.480;20.016;2023-05-01T05:26:02;95342.09;;;4.71;100.00
54465;BME280;40374;49.480;20.016;2023-05-01T05:28:30;95335.84;;;4.77;100.00
54465;BME280;40374;49.480;20.016;2023-05-01T05:30:58;95349.56;;;5.09;100.00
54465;BME280;40374;49.480;20.016;2023-05-01T05:33:25;95350.69;;;5.54;100.00
54465;BME280;40374;49.480;20.016;2023-05-01T05:35:53;95346.59;;;5.35;100.00
54465;BME280;40374;49.480;20.016;2023-05-01T05:38:24;95341.06;;;5.82;100.00
54465;BME280;40374;49.480;20.016;2023-05-01T05:40:55;95350.25;;;5.74;100.00
54465;BME280;40374;49.480;20.016;2023-05-01T05:43:25;95349.81;;;5.94;100.00
54465;BME280;40374;49.480;20.016;2023-05-01T05:45:56;95343.22;;;5.97;100.00
54465;BME280;40374;49.480;20.016;2023-05-01T05:48:25;95341.06;;;5.82;100.00
54465;BME280;40374;49.480;20.016;2023-05-01T05:50:53;95349.28;;;5.63;100.00
54465;BME280;40374;49.480;20.016;2023-05-01T05:53:20;95340.06;;;5.71;100.00
54465;BME280;40374;49.480;20.016;2023-05-01T05:55:52;95347.38;;;5.76;100.00
54465;BME280;40374;49.480;20.016;2023-05-01T05:58:20;95348.47;;;6.08;100.00
54465;BME280;40374;49.480;20.016;2023-05-01T06:00:49;95343.06;;;6.20;100.00
54465;BME280;40374;49.480;20.016;2023-05-01T06:03:18;95340.63;;;6.53;100.00
54465;BME280;40374;49.480;20.016;2023-05-01T06:05:49;95348.06;;;6.50;100.00
54465;BME280;40374;49.480;20.016;2023-05-01T06:08:17;95343.78;;;6.88;100.00
54465;BME280;40374;49.480;20.016;2023-05-01T06:10:44;95344.69;;;6.94;100.00
54465;BME280;40374;49.480;20.016;2023-05-01T06:13:13;95350.03;;;6.94;100.00
54465;BME280;40374;49.480;20.016;2023-05-01T06:15:45;95348.38;;;6.71;100.00
54465;BME280;40374;49.480;20.016;2023-05-01T06:18:12;95344.91;;;6.93;100.00
54465;BME280;40374;49.480;20.016;2023-05-01T06:20:40;95345.94;;;6.69;100.00
54465;BME280;40374;49.480;20.016;2023-05-01T06:23:08;95350.97;;;6.83;100.00
54465;BME280;40374;49.480;20.016;2023-05-01T06:25:47;95337.78;;;6.98;100.00
54465;BME280;40374;49.480;20.016;2023-05-01T06:28:15;95326.16;;;7.09;100.00
54465;BME280;40374;49.480;20.016;2023-05-01T06:30:42;95332.47;;;7.47;100.00
54465;BME280;40374;49.480;20.016;2023-05-01T06:33:10;95332.03;;;7.56;100.00
54465;BME280;40374;49.480;20.016;2023-05-01T06:35:42;95311.16;;;7.80;100.00
54465;BME280;40374;49.480;20.016;2023-05-01T06:38:09;95319.63;;;7.99;100.00
54465;BME280;40374;49.480;20.016;2023-05-01T06:40:36;95325.75;;;8.26;100.00
54465;BME280;40374;49.480;20.016;2023-05-01T06:43:04;95320.72;;;8.35;100.00
54465;BME280;40374;49.480;20.016;2023-05-01T06:45:31;95317.72;;;8.64;100.00
54465;BME280;40374;49.480;20.016;2023-05-01T06:47:59;95317.28;;;8.77;100.00
54465;BME280;40374;49.480;20.016;2023-05-01T06:50:27;95318.97;;;8.93;100.00
54465;BME280;40374;49.480;20.016;2023-05-01T06:52:55;95321.16;;;9.02;100.00
54465;BME280;40374;49.480;20.016;2023-05-01T06:55:25;95316.94;;;9.16;100.00
54465;BME280;40374;49.480;20.016;2023-05-01T06:57:53;95318.94;;;9.46;100.00
54465;BME280;40374;49.480;20.016;2023-05-01T07:00:21;95309.38;;;9.96;100.00
54465;BME280;40374;49.480;20.016;2023-05-01T07:02:50;95311.84;;;10.39;100.00
54465;BME280;40374;49.480;20.016;2023-05-01T07:05:18;95305.34;;;10.66;100.00
54465;BME280;40374;49.480;20.016;2023-05-01T07:07:46;95302.41;;;10.57;84.20
54465;BME280;40374;49.480;20.016;2023-05-01T07:10:26;95294.88;;;10.69;81.60
54465;BME280;40374;49.480;20.016;2023-05-01T07:12:55;95301.00;;;10.90;82.34
54465;BME280;40374;49.480;20.016;2023-05-01T07:15:22;95307.00;;;11.42;78.85
54465;BME280;40374;49.480;20.016;2023-05-01T07:17:49;95296.13;;;11.68;73.85
54465;BME280;40374;49.480;20.016;2023-05-01T07:20:17;95295.09;;;12.03;75.21
54465;BME280;40374;49.480;20.016;2023-05-01T07:22:44;95296.66;;;12.14;66.30
54465;BME280;40374;49.480;20.016;2023-05-01T07:25:12;95298.97;;;12.26;71.43
54465;BME280;40374;49.480;20.016;2023-05-01T07:27:40;95301.56;;;12.42;70.66
54465;BME280;40374;49.480;20.016;2023-05-01T07:30:08;95294.66;;;12.59;71.61
54465;BME280;40374;49.480;20.016;2023-05-01T07:32:35;95298.69;;;12.62;67.14
54465;BME280;40374;49.480;20.016;2023-05-01T07:35:04;95304.72;;;12.78;65.35
54465;BME280;40374;49.480;20.016;2023-05-01T07:37:31;95294.94;;;12.58;59.49
54465;BME280;40374;49.480;20.016;2023-05-01T07:39:59;95287.13;;;12.56;60.99
54465;BME280;40374;49.480;20.016;2023-05-01T07:42:26;95295.22;;;12.86;60.14
54465;BME280;40374;49.480;20.016;2023-05-01T07:44:54;95296.44;;;12.98;59.44
54465;BME280;40374;49.480;20.016;2023-05-01T07:47:21;95297.91;;;13.10;59.83
54465;BME280;40374;49.480;20.016;2023-05-01T07:49:49;95278.34;;;13.23;60.76
54465;BME280;40374;49.480;20.016;2023-05-01T07:52:16;95289.72;;;13.44;57.95
54465;BME280;40374;49.480;20.016;2023-05-01T07:54:49;95295.75;;;13.98;58.84
54465;BME280;40374;49.480;20.016;2023-05-01T07:57:17;95304.22;;;13.91;54.63
54465;BME280;40374;49.480;20.016;2023-05-01T07:59:44;95291.34;;;14.02;55.96
54465;BME280;40374;49.480;20.016;2023-05-01T08:02:12;95286.53;;;13.99;52.68
54465;BME280;40374;49.480;20.016;2023-05-01T08:04:40;95295.03;;;13.73;52.95
54465;BME280;40374;49.480;20.016;2023-05-01T08:07:07;95293.50;;;13.86;53.70
54465;BME280;40374;49.480;20.016;2023-05-01T08:09:35;95297.41;;;13.94;53.79
54465;BME280;40374;49.480;20.016;2023-05-01T08:12:02;95299.47;;;14.02;51.70
54465;BME280;40374;49.480;20.016;2023-05-01T08:14:30;95288.88;;;14.06;51.15
54465;BME280;40374;49.480;20.016;2023-05-01T08:16:58;95284.31;;;14.39;52.95
54465;BME280;40374;49.480;20.016;2023-05-01T08:19:25;95279.91;;;14.76;52.74
54465;BME280;40374;49.480;20.016;2023-05-01T08:21:53;95292.38;;;15.05;50.95
54465;BME280;40374;49.480;20.016;2023-05-01T08:24:21;95259.88;;;15.05;47.09
54465;BME280;40374;49.480;20.016;2023-05-01T08:26:49;95285.97;;;15.28;48.34
54465;BME280;40374;49.480;20.016;2023-05-01T08:29:17;95280.25;;;15.02;45.60
54465;BME280;40374;49.480;20.016;2023-05-01T08:31:44;95274.91;;;14.97;46.34
54465;BME280;40374;49.480;20.016;2023-05-01T08:34:12;95273.22;;;15.42;45.59
54465;BME280;40374;49.480;20.016;2023-05-01T08:36:40;95280.72;;;15.59;45.82
54465;BME280;40374;49.480;20.016;2023-05-01T08:39:07;95275.72;;;15.67;45.55
54465;BME280;40374;49.480;20.016;2023-05-01T08:41:36;95275.31;;;15.59;44.33
54465;BME280;40374;49.480;20.016;2023-05-01T08:44:06;95265.38;;;15.55;45.08
54465;BME280;40374;49.480;20.016;2023-05-01T08:49:31;95257.13;;;15.60;44.46
54465;BME280;40374;49.480;20.016;2023-05-01T08:52:01;95269.47;;;15.80;44.50
54465;BME280;40374;49.480;20.016;2023-05-01T08:54:30;95264.63;;;15.91;43.31
54465;BME280;40374;49.480;20.016;2023-05-01T08:57:02;95255.22;;;16.11;44.67
54465;BME280;40374;49.480;20.016;2023-05-01T08:59:34;95253.78;;;16.13;44.92
54465;BME280;40374;49.480;20.016;2023-05-01T09:02:03;95260.06;;;16.68;43.88
54465;BME280;40374;49.480;20.016;2023-05-01T09:04:36;95256.34;;;16.86;43.09
54465;BME280;40374;49.480;20.016;2023-05-01T09:07:04;95254.94;;;17.37;42.29
54465;BME280;40374;49.480;20.016;2023-05-01T09:09:32;95248.28;;;17.61;41.91
54465;BME280;40374;49.480;20.016;2023-05-01T09:14:32;95237.44;;;18.22;42.66
54465;BME280;40374;49.480;20.016;2023-05-01T09:16:59;95224.88;;;18.64;43.13
54465;BME280;40374;49.480;20.016;2023-05-01T09:19:27;95211.84;;;18.88;38.98
54465;BME280;40374;49.480;20.016;2023-05-01T09:21:54;95227.72;;;19.33;39.25
54465;BME280;40374;49.480;20.016;2023-05-01T09:24:23;95214.84;;;19.63;39.54
54465;BME280;40374;49.480;20.016;2023-05-01T09:26:51;95221.44;;;19.62;37.99
54465;BME280;40374;49.480;20.016;2023-05-01T09:29:42;95222.06;;;19.67;36.70
54465;BME280;40374;49.480;20.016;2023-05-01T09:32:20;95208.84;;;19.78;36.18
54465;BME280;40374;49.480;20.016;2023-05-01T09:34:49;95199.69;;;20.16;34.72
54465;BME280;40374;49.480;20.016;2023-05-01T09:40:13;95203.78;;;19.38;33.83
54465;BME280;40374;49.480;20.016;2023-05-01T09:42:51;95211.28;;;19.71;35.28
54465;BME280;40374;49.480;20.016;2023-05-01T09:45:22;95202.72;;;19.81;36.33
54465;BME280;40374;49.480;20.016;2023-05-01T09:47:50;95201.19;;;20.26;35.21
54465;BME280;40374;49.480;20.016;2023-05-01T09:50:34;95192.63;;;20.82;34.68
54465;BME280;40374;49.480;20.016;2023-05-01T09:53:03;95199.47;;;20.88;33.46
54465;BME280;40374;49.480;20.016;2023-05-01T09:55:33;95187.84;;;21.03;33.07
54465;BME280;40374;49.480;20.016;2023-05-01T09:58:01;95182.16;;;20.96;33.88
54465;BME280;40374;49.480;20.016;2023-05-01T10:00:29;95179.09;;;21.22;34.45
54465;BME280;40374;49.480;20.016;2023-05-01T10:02:57;95184.25;;;21.48;32.87
54465;BME280;40374;49.480;20.016;2023-05-01T10:05:25;95177.03;;;21.19;31.18
54465;BME280;40374;49.480;20.016;2023-05-01T10:08:00;95178.16;;;21.18;33.44
54465;BME280;40374;49.480;20.016;2023-05-01T10:10:30;95184.09;;;21.57;33.48
54465;BME280;40374;49.480;20.016;2023-05-01T10:13:15;95175.47;;;21.83;33.10
54465;BME280;40374;49.480;20.016;2023-05-01T10:15:44;95178.75;;;21.48;32.45
54465;BME280;40374;49.480;20.016;2023-05-01T10:18:16;95166.59;;;21.86;32.57
54465;BME280;40374;49.480;20.016;2023-05-01T10:20:44;95161.06;;;21.99;31.20
54465;BME280;40374;49.480;20.016;2023-05-01T10:23:12;95165.34;;;22.12;32.19
54465;BME280;40374;49.480;20.016;2023-05-01T10:25:41;95160.97;;;22.67;32.28
54465;BME280;40374;49.480;20.016;2023-05-01T10:28:08;95156.66;;;22.98;31.65
54465;BME280;40374;49.480;20.016;2023-05-01T10:30:38;95158.53;;;23.26;32.43
54465;BME280;40374;49.480;20.016;2023-05-01T10:33:08;95140.84;;;23.59;31.78
54465;BME280;40374;49.480;20.016;2023-05-01T10:35:38;95145.59;;;23.97;32.11
54465;BME280;40374;49.480;20.016;2023-05-01T10:38:12;95137.25;;;24.33;31.71
54465;BME280;40374;49.480;20.016;2023-05-01T10:40:50;95139.84;;;24.64;29.24
54465;BME280;40374;49.480;20.016;2023-05-01T10:43:23;95133.19;;;24.65;30.38
54465;BME280;40374;49.480;20.016;2023-05-01T10:51:10;95132.66;;;24.17;30.14
54465;BME280;40374;49.480;20.016;2023-05-01T10:53:39;95130.59;;;24.34;29.97
54465;BME280;40374;49.480;20.016;2023-05-01T11:04:02;95121.50;;;25.75;28.54
54465;BME280;40374;49.480;20.016;2023-05-01T11:06:31;95121.81;;;25.97;28.19
54465;BME280;40374;49.480;20.016;2023-05-01T11:08:59;95121.47;;;26.36;28.21
54465;BME280;40374;49.480;20.016;2023-05-01T11:11:44;95109.63;;;26.72;29.35
54465;BME280;40374;49.480;20.016;2023-05-01T11:14:14;95101.91;;;26.89;27.81
54465;BME280;40374;49.480;20.016;2023-05-01T11:16:42;95105.91;;;26.95;26.95
54465;BME280;40374;49.480;20.016;2023-05-01T11:21:49;95099.16;;;26.89;27.88
54465;BME280;40374;49.480;20.016;2023-05-01T11:24:18;95078.53;;;26.76;27.45
54465;BME280;40374;49.480;20.016;2023-05-01T11:26:46;95089.28;;;26.88;28.33
54465;BME280;40374;49.480;20.016;2023-05-01T11:29:15;95094.22;;;27.16;27.77
54465;BME280;40374;49.480;20.016;2023-05-01T11:31:47;95083.22;;;27.20;26.36
54465;BME280;40374;49.480;20.016;2023-05-01T11:34:15;95083.41;;;26.93;28.01
54465;BME280;40374;49.480;20.016;2023-05-01T11:36:48;95080.13;;;26.39;25.73
54465;BME280;40374;49.480;20.016;2023-05-01T11:39:16;95082.53;;;25.73;26.95
54465;BME280;40374;49.480;20.016;2023-05-01T11:41:45;95090.22;;;25.60;27.21
54465;BME280;40374;49.480;20.016;2023-05-01T11:44:17;95070.63;;;25.96;27.83
54465;BME280;40374;49.480;20.016;2023-05-01T11:46:45;95081.78;;;26.10;27.52
54465;BME280;40374;49.480;20.016;2023-05-01T11:49:26;95073.41;;;26.37;27.13
54465;BME280;40374;49.480;20.016;2023-05-01T11:51:57;95068.31;;;26.39;26.43
54465;BME280;40374;49.480;20.016;2023-05-01T11:54:25;95079.38;;;26.05;26.43
54465;BME280;40374;49.480;20.016;2023-05-01T11:56:57;95071.47;;;26.00;27.64
54465;BME280;40374;49.480;20.016;2023-05-01T11:59:28;95055.88;;;26.18;26.03
54465;BME280;40374;49.480;20.016;2023-05-01T12:01:56;95073.53;;;26.10;26.60
54465;BME280;40374;49.480;20.016;2023-05-01T12:04:26;95060.97;;;26.12;27.08
54465;BME280;40374;49.480;20.016;2023-05-01T12:06:58;95058.47;;;26.38;27.26
54465;BME280;40374;49.480;20.016;2023-05-01T12:09:26;95051.66;;;26.28;25.29
54465;BME280;40374;49.480;20.016;2023-05-01T12:11:56;95050.38;;;26.18;24.37
54465;BME280;40374;49.480;20.016;2023-05-01T12:14:27;95062.19;;;25.85;23.85
54465;BME280;40374;49.480;20.016;2023-05-01T12:16:55;95054.78;;;25.59;24.28
54465;BME280;40374;49.480;20.016;2023-05-01T12:19:26;95052.13;;;25.66;25.97
54465;BME280;40374;49.480;20.016;2023-05-01T12:22:06;95049.28;;;26.26;25.37
54465;BME280;40374;49.480;20.016;2023-05-01T12:24:35;95046.75;;;26.51;23.76
54465;BME280;40374;49.480;20.016;2023-05-01T12:27:04;95028.22;;;26.52;22.73
54465;BME280;40374;49.480;20.016;2023-05-01T12:29:39;95041.78;;;26.64;24.00
54465;BME280;40374;49.480;20.016;2023-05-01T12:32:08;95036.38;;;26.79;24.31
54465;BME280;40374;49.480;20.016;2023-05-01T12:34:35;95037.03;;;26.61;22.54
54465;BME280;40374;49.480;20.016;2023-05-01T12:37:03;95039.31;;;26.56;21.78
54465;BME280;40374;49.480;20.016;2023-05-01T12:39:38;95028.63;;;26.50;20.32
54465;BME280;40374;49.480;20.016;2023-05-01T12:42:12;95034.16;;;26.54;20.44
54465;BME280;40374;49.480;20.016;2023-05-01T12:44:41;95033.22;;;26.36;19.18
54465;BME280;40374;49.480;20.016;2023-05-01T12:47:11;95026.19;;;26.42;20.22
54465;BME280;40374;49.480;20.016;2023-05-01T12:49:38;95012.81;;;26.92;21.65
54465;BME280;40374;49.480;20.016;2023-05-01T12:52:07;95009.59;;;27.45;23.36
54465;BME280;40374;49.480;20.016;2023-05-01T12:54:38;95007.47;;;28.08;21.50
54465;BME280;40374;49.480;20.016;2023-05-01T12:57:08;94999.94;;;27.87;20.05
54465;BME280;40374;49.480;20.016;2023-05-01T12:59:37;94998.22;;;27.58;18.93
54465;BME280;40374;49.480;20.016;2023-05-01T13:02:08;95001.28;;;27.42;19.27
54465;BME280;40374;49.480;20.016;2023-05-01T13:04:39;95000.50;;;27.34;19.06
54465;BME280;40374;49.480;20.016;2023-05-01T13:07:11;94992.66;;;27.54;19.93
54465;BME280;40374;49.480;20.016;2023-05-01T13:09:39;94988.94;;;28.16;20.56
54465;BME280;40374;49.480;20.016;2023-05-01T13:12:17;94977.84;;;29.09;20.85
54465;BME280;40374;49.480;20.016;2023-05-01T13:14:44;94985.34;;;30.15;20.64
54465;BME280;40374;49.480;20.016;2023-05-01T13:17:21;94978.69;;;31.10;18.26
54465;BME280;40374;49.480;20.016;2023-05-01T13:19:58;94969.41;;;31.24;17.75
54465;BME280;40374;49.480;20.016;2023-05-01T13:25:00;94970.59;;;31.91;20.28
54465;BME280;40374;49.480;20.016;2023-05-01T13:27:29;94964.50;;;32.58;20.65
54465;BME280;40374;49.480;20.016;2023-05-01T13:29:57;94964.38;;;33.32;19.90
54465;BME280;40374;49.480;20.016;2023-05-01T13:32:26;94958.63;;;33.83;19.75
54465;BME280;40374;49.480;20.016;2023-05-01T13:34:58;94955.69;;;33.50;18.02
54465;BME280;40374;49.480;20.016;2023-05-01T13:37:26;94956.41;;;33.54;19.63
54465;BME280;40374;49.480;20.016;2023-05-01T13:39:57;94948.09;;;34.27;19.47
54465;BME280;40374;49.480;20.016;2023-05-01T13:42:26;94932.00;;;35.13;19.38
54465;BME280;40374;49.480;20.016;2023-05-01T13:44:55;94934.25;;;35.77;20.00
54465;BME280;40374;49.480;20.016;2023-05-01T13:47:24;94932.28;;;36.42;18.80
54465;BME280;40374;49.480;20.016;2023-05-01T13:49:54;94932.31;;;36.89;17.58
54465;BME280;40374;49.480;20.016;2023-05-01T13:52:23;94930.31;;;37.25;18.11
54465;BME280;40374;49.480;20.016;2023-05-01T13:54:51;94926.53;;;37.18;17.98